This is the latest recevied weather packets stored in our database for station/object IZ2MHJ-3. If no packets are shown the sender has not sent any weather packets the latest 10 day(s).
| Time | Temp. | Humidity | Pressure | Rain* | Wind** | Luminosity | Snow |
|---|---|---|---|---|---|---|---|
| 1778000662 | 14.44° C | 88% | 1014.6 hPa | - | - | - | - |
| 1777999462 | 14.44° C | 88% | 1014.7 hPa | - | - | - | - |
| 1777998262 | 14.44° C | 88% | 1014.8 hPa | - | - | - | - |
| 1777997061 | 14.44° C | 89% | 1014.9 hPa | - | - | - | - |
| 1777995861 | 14.44° C | 89% | 1015 hPa | - | - | - | - |
| 1777994661 | 14.44° C | 91% | 1015.1 hPa | - | - | - | - |
| 1777993530 | 14.44° C | 92% | 1015.1 hPa | - | - | - | - |
| 1777992329 | 13.89° C | 94% | 1015.2 hPa | - | - | - | - |
| 1777991129 | 13.89° C | 92% | 1015.3 hPa | - | - | - | - |
| 1777989929 | 13.89° C | 94% | 1015.3 hPa | - | - | - | - |
| 1777988728 | 13.33° C | 98% | 1015.5 hPa | - | - | - | - |
| 1777987528 | 13.33° C | 98% | 1015.5 hPa | - | - | - | - |
| 1777986328 | 13.33° C | 94% | 1015.6 hPa | - | - | - | - |
| 1777985128 | 13.33° C | 95% | 1015.6 hPa | - | - | - | - |
| 1777983927 | 13.33° C | 96% | 1015.7 hPa | - | - | - | - |
| 1777982722 | 13.33° C | 96% | 1015.8 hPa | - | - | - | - |
| 1777981521 | 13.33° C | 98% | 1015.8 hPa | - | - | - | - |
| 1777980321 | 13.33° C | 98% | 1015.8 hPa | - | - | - | - |
| 1777979121 | 12.78° C | 99% | 1015.8 hPa | - | - | - | - |
| 1777977921 | 13.33° C | 96% | 1015.8 hPa | - | - | - | - |
| 1777976720 | 13.89° C | 93% | 1015.6 hPa | - | - | - | - |
| 1777975520 | 13.89° C | 91% | 1015.6 hPa | - | - | - | - |
| 1777974320 | 14.44° C | 87% | 1015.5 hPa | - | - | - | - |
| 1777973119 | 15° C | 85% | 1015.3 hPa | - | - | - | - |
| 1777971919 | 15° C | 84% | 1014.2 hPa | - | - | - | - |
* Rain since midnight (hover to see other rain measurements)
** Current wind speed in m/s (hover to see current wind gust speed)